createdAt,value
2019-03-19T08:48:03.622Z,61.35
2019-03-19T08:50:35.790Z,60.23
2019-03-19T08:53:09.004Z,60.12
2019-03-19T08:55:41.741Z,58.10
2019-03-19T08:58:15.678Z,65.37
2019-03-19T09:01:21.136Z,61.05
2019-03-19T09:03:53.652Z,63.90
2019-03-19T09:06:26.221Z,66.00
2019-03-19T09:08:58.474Z,54.33
2019-03-19T09:11:31.868Z,55.23
2019-03-19T09:14:04.642Z,54.70
2019-03-19T09:16:40.705Z,59.27
2019-03-19T09:19:13.052Z,56.63
2019-03-19T09:21:45.354Z,55.80
2019-03-19T09:24:17.557Z,53.73
2019-03-19T09:26:49.828Z,55.08
2019-03-19T09:29:22.009Z,57.58
2019-03-19T09:31:54.051Z,56.50
2019-03-19T09:34:27.638Z,55.73
2019-03-19T09:36:59.855Z,58.30
2019-03-19T09:39:32.089Z,56.50
2019-03-19T09:42:04.566Z,57.48
2019-03-19T09:44:36.887Z,53.15
2019-03-19T09:47:09.131Z,56.02
2019-03-19T09:49:41.515Z,53.90
2019-03-19T09:52:13.866Z,52.95
2019-03-19T09:54:46.098Z,58.17
2019-03-19T09:57:18.553Z,96.85
2019-03-19T09:59:51.847Z,64.72
2019-03-19T10:02:24.063Z,55.57
2019-03-19T10:04:56.630Z,53.73
2019-03-19T10:07:28.791Z,54.03
2019-03-19T10:10:01.011Z,53.58
2019-03-19T10:12:33.567Z,55.10
2019-03-19T10:15:07.020Z,55.33
2019-03-19T10:17:39.274Z,59.38
2019-03-19T10:20:13.823Z,62.53
2019-03-19T10:22:46.465Z,57.43
2019-03-19T10:25:19.240Z,66.80
2019-03-19T10:27:51.615Z,56.55
2019-03-19T10:30:25.523Z,75.10
2019-03-19T10:32:58.287Z,64.05
2019-03-19T10:35:30.507Z,57.95
2019-03-19T10:38:02.746Z,60.03
2019-03-19T10:40:34.892Z,62.23
2019-03-19T10:43:07.615Z,65.22
2019-03-19T10:45:39.944Z,62.73
2019-03-19T10:48:12.153Z,55.03
2019-03-19T10:50:44.435Z,52.90
2019-03-19T10:53:16.619Z,55.80
2019-03-19T10:55:49.102Z,53.30
2019-03-19T10:58:21.209Z,52.95
2019-03-19T11:00:55.337Z,53.30
2019-03-19T11:03:27.567Z,57.48
2019-03-19T11:05:59.723Z,60.88
2019-03-19T11:08:32.061Z,60.98
2019-03-19T11:11:04.103Z,60.90
2019-03-19T11:13:36.504Z,66.27
2019-03-19T11:16:08.590Z,60.05
2019-03-19T11:18:40.826Z,61.90
2019-03-19T11:21:12.984Z,60.38
2019-03-19T11:23:45.207Z,78.90
2019-03-19T11:26:17.430Z,61.15
2019-03-19T11:28:49.865Z,60.52
2019-03-19T11:31:22.128Z,59.45
2019-03-19T11:33:54.400Z,62.20
2019-03-19T11:36:26.732Z,63.85
2019-03-19T11:38:58.930Z,69.90
2019-03-19T11:41:31.121Z,64.63
2019-03-19T11:44:03.576Z,63.48
2019-03-19T11:46:35.991Z,61.02
2019-03-19T11:49:08.324Z,61.85
2019-03-19T11:51:40.769Z,63.17
2019-03-19T11:54:13.058Z,58.83
2019-03-19T11:56:45.170Z,54.50
2019-03-19T11:59:20.393Z,60.95
2019-03-19T12:01:53.932Z,58.55
2019-03-19T12:04:26.203Z,56.63
2019-03-19T12:06:58.272Z,55.67
2019-03-19T12:09:30.448Z,57.08
2019-03-19T12:12:02.487Z,55.92
2019-03-19T12:14:44.442Z,59.98
2019-03-19T12:17:16.976Z,53.98
2019-03-19T12:19:49.226Z,57.13
2019-03-19T12:22:21.405Z,64.22
2019-03-19T12:24:53.715Z,57.83
2019-03-19T12:27:26.137Z,61.80
2019-03-19T12:29:59.486Z,61.65
2019-03-19T12:32:31.705Z,58.80
2019-03-19T12:35:03.931Z,62.23
2019-03-19T12:37:36.201Z,59.13
2019-03-19T12:40:11.083Z,59.80
2019-03-19T12:42:43.363Z,61.08
2019-03-19T12:45:17.485Z,62.85
2019-03-19T12:47:49.743Z,60.57
2019-03-19T12:50:24.592Z,56.63
2019-03-19T12:52:56.767Z,58.68
2019-03-19T12:55:29.177Z,58.25
2019-03-19T12:58:01.566Z,58.17
2019-03-19T13:00:35.260Z,60.55
2019-03-19T13:03:09.411Z,64.40
2019-03-19T13:05:41.596Z,66.90
2019-03-19T13:08:13.814Z,62.85
2019-03-19T13:10:46.192Z,60.88
2019-03-19T13:13:18.425Z,57.27
2019-03-19T13:15:50.729Z,57.00
2019-03-19T13:18:22.969Z,55.78
2019-03-19T13:20:55.317Z,56.10
2019-03-19T13:23:27.549Z,58.05
2019-03-19T13:25:59.677Z,57.30
2019-03-19T13:28:32.946Z,78.53
2019-03-19T13:31:05.407Z,85.03
2019-03-19T13:33:37.595Z,84.03
2019-03-19T13:36:10.056Z,81.80
2019-03-19T13:38:42.397Z,79.53
2019-03-19T13:41:14.583Z,78.47
2019-03-19T13:43:46.839Z,93.00
2019-03-19T13:46:18.971Z,91.87
2019-03-19T13:48:51.313Z,78.83
2019-03-19T13:51:23.549Z,81.35
2019-03-19T13:53:55.706Z,82.10
2019-03-19T13:56:27.826Z,66.62
2019-03-19T13:58:59.871Z,72.42
2019-03-19T14:01:32.302Z,63.73
2019-03-19T14:04:04.788Z,65.97
2019-03-19T14:06:38.727Z,69.27
2019-03-19T14:09:11.096Z,67.32
2019-03-19T14:11:43.217Z,63.87
2019-03-19T14:14:15.375Z,68.35
2019-03-19T14:16:47.667Z,63.55
2019-03-19T14:19:19.721Z,66.35
2019-03-19T14:21:52.391Z,59.50
2019-03-19T14:24:24.537Z,60.73
2019-03-19T14:26:56.880Z,61.23
2019-03-19T14:29:29.076Z,58.25
2019-03-19T14:32:03.885Z,54.00
2019-03-19T14:34:35.238Z,56.85
2019-03-19T14:37:07.807Z,51.97
2019-03-19T14:39:40.338Z,49.85
2019-03-19T14:42:12.531Z,58.40
2019-03-19T14:44:45.039Z,50.95
2019-03-19T14:47:17.662Z,51.13
2019-03-19T14:49:50.014Z,54.55
2019-03-19T14:52:22.635Z,49.80
2019-03-19T14:54:54.910Z,53.13
2019-03-19T14:57:27.307Z,79.70
2019-03-19T14:59:59.530Z,52.38
2019-03-19T15:02:32.976Z,61.13
2019-03-19T15:05:05.718Z,66.20
2019-03-19T15:07:39.171Z,52.67
2019-03-19T15:10:13.545Z,46.75
2019-03-19T15:12:45.919Z,32.73
2019-03-19T15:15:20.758Z,42.93
2019-03-19T15:17:53.552Z,38.98
2019-03-19T15:20:26.997Z,31.90
2019-03-19T15:22:59.918Z,31.90
2019-03-19T15:25:32.324Z,32.38
2019-03-19T15:28:04.554Z,132.18
2019-03-19T15:30:36.858Z,105.52
2019-03-19T15:33:09.504Z,71.53
2019-03-19T15:35:41.842Z,55.80
2019-03-19T15:38:14.075Z,81.92
2019-03-19T15:40:46.322Z,116.37
2019-03-19T15:43:18.624Z,55.67
2019-03-19T15:45:50.719Z,53.38
2019-03-19T15:48:22.861Z,47.27
2019-03-19T15:50:55.500Z,48.68
2019-03-19T15:53:28.277Z,60.00
2019-03-19T15:56:00.691Z,50.28
2019-03-19T15:58:33.023Z,46.13
2019-03-19T16:01:05.362Z,54.50
2019-03-19T16:03:37.553Z,48.45
2019-03-19T16:06:09.726Z,47.73
2019-03-19T16:08:44.019Z,41.53
2019-03-19T16:11:16.377Z,43.48
2019-03-19T16:13:48.782Z,42.38
2019-03-19T16:16:21.153Z,46.83
2019-03-19T16:18:53.498Z,42.13
2019-03-19T16:21:25.741Z,42.73
2019-03-19T16:23:58.345Z,41.50
2019-03-19T16:26:31.538Z,42.25
2019-03-19T16:29:04.084Z,41.77
2019-03-19T16:31:36.426Z,43.00
2019-03-19T16:34:08.751Z,43.13
2019-03-19T16:36:41.072Z,44.10
2019-03-19T16:39:13.310Z,42.23
2019-03-19T16:41:46.407Z,42.33
2019-03-19T16:44:18.780Z,42.03
2019-03-19T16:46:51.121Z,42.55
2019-03-19T16:49:23.482Z,42.20
2019-03-19T16:51:55.665Z,42.25
2019-03-19T16:54:27.996Z,42.90
2019-03-19T16:57:00.236Z,43.08
2019-03-19T16:59:32.702Z,42.85
2019-03-19T17:02:05.033Z,42.62
2019-03-19T17:04:37.427Z,47.60
2019-03-19T17:07:10.742Z,42.98
2019-03-19T17:09:43.930Z,44.15
2019-03-19T17:12:16.174Z,44.10
2019-03-19T17:14:48.382Z,43.15
2019-03-19T17:17:20.814Z,43.87
2019-03-19T17:19:53.212Z,44.20
2019-03-19T17:22:25.474Z,76.03
2019-03-19T17:24:58.190Z,46.75
2019-03-19T17:27:30.347Z,44.87
2019-03-19T17:30:02.592Z,45.25
2019-03-19T17:32:35.011Z,71.95
2019-03-19T17:35:07.383Z,43.70
2019-03-19T17:37:39.864Z,44.85
2019-03-19T17:40:13.837Z,45.92
2019-03-19T17:42:46.192Z,45.00
2019-03-19T17:45:18.547Z,45.73
2019-03-19T17:47:50.769Z,46.68
2019-03-19T17:50:25.467Z,44.80
2019-03-19T17:52:58.263Z,46.55
2019-03-19T17:55:30.767Z,47.10
2019-03-19T17:58:02.905Z,50.05
2019-03-19T18:00:36.315Z,51.00
2019-03-19T18:03:08.429Z,47.80
2019-03-19T18:05:40.570Z,46.33
2019-03-19T18:08:12.897Z,47.73
2019-03-19T18:10:46.245Z,47.80
2019-03-19T18:13:18.316Z,49.00
2019-03-19T18:15:50.413Z,47.50
2019-03-19T18:18:23.869Z,52.23
2019-03-19T18:20:56.182Z,53.13
2019-03-19T18:23:29.491Z,51.17
2019-03-19T18:26:02.251Z,56.13
2019-03-19T18:28:35.764Z,57.13
2019-03-19T18:31:08.639Z,56.30
2019-03-19T18:33:40.969Z,66.67
2019-03-19T18:36:13.206Z,55.27
2019-03-19T18:38:45.528Z,57.93
2019-03-19T18:41:17.880Z,59.75
2019-03-19T18:43:50.112Z,58.23
2019-03-19T18:46:22.384Z,56.05
2019-03-19T18:48:54.737Z,55.78
2019-03-19T18:51:27.144Z,56.60
2019-03-19T18:53:59.362Z,58.20
2019-03-19T18:56:38.353Z,57.10
2019-03-19T18:59:10.675Z,56.93
2019-03-19T19:01:43.044Z,56.63
2019-03-19T19:04:15.303Z,57.35
2019-03-19T19:06:47.580Z,61.88
2019-03-19T19:09:19.730Z,59.10
2019-03-19T19:11:52.521Z,58.87
2019-03-19T19:14:24.988Z,60.55
2019-03-19T19:16:57.346Z,58.75
2019-03-19T19:19:29.461Z,61.50
2019-03-19T19:22:01.615Z,63.58
2019-03-19T19:24:33.935Z,61.30
2019-03-19T19:27:07.118Z,58.00
2019-03-19T19:29:39.341Z,61.05
2019-03-19T19:32:11.615Z,60.45
2019-03-19T19:34:43.747Z,63.50
2019-03-19T19:37:16.241Z,64.17
2019-03-19T19:39:48.658Z,64.43
2019-03-19T19:42:20.830Z,65.23
2019-03-19T19:44:53.030Z,64.97
2019-03-19T19:47:25.352Z,65.72
2019-03-19T19:49:57.697Z,62.13
2019-03-19T19:52:30.367Z,64.77
2019-03-19T19:55:02.699Z,61.00
2019-03-19T19:57:34.875Z,59.45
2019-03-19T20:00:09.524Z,59.67
2019-03-19T20:02:41.717Z,62.15
2019-03-19T20:05:14.266Z,61.45
2019-03-19T20:07:46.412Z,59.35
2019-03-19T20:10:20.574Z,56.88
2019-03-19T20:12:53.218Z,61.15
2019-03-19T20:15:25.513Z,76.02
2019-03-19T20:17:57.906Z,104.60
2019-03-19T20:20:32.057Z,102.93
2019-03-19T20:23:05.369Z,105.47
2019-03-19T20:25:37.612Z,100.47
2019-03-19T20:28:10.009Z,73.92
2019-03-19T20:30:42.209Z,70.57
2019-03-19T20:33:24.515Z,67.27
2019-03-19T20:35:48.047Z,66.80
2019-03-19T20:38:20.156Z,64.17
2019-03-19T20:40:52.212Z,70.95
2019-03-19T20:43:24.367Z,71.00
2019-03-19T20:45:56.603Z,66.62
2019-03-19T20:48:28.662Z,61.95
2019-03-19T20:51:01.989Z,60.10
2019-03-19T20:53:34.404Z,59.98
2019-03-19T20:56:06.611Z,59.95
2019-03-19T20:58:43.418Z,60.80
2019-03-19T21:01:12.958Z,60.70
2019-03-19T21:03:45.221Z,59.85
2019-03-19T21:06:18.396Z,62.40
2019-03-19T21:08:50.434Z,61.58
2019-03-19T21:11:22.694Z,90.20
2019-03-19T21:13:55.174Z,82.62
2019-03-19T21:16:29.307Z,87.85
2019-03-19T21:19:00.936Z,103.65
2019-03-19T21:21:33.285Z,69.42
2019-03-19T21:24:05.462Z,71.85
2019-03-19T21:26:37.804Z,74.50
2019-03-19T21:29:10.169Z,80.10
2019-03-19T21:31:42.413Z,97.17
2019-03-19T21:34:14.673Z,96.35
2019-03-19T21:36:47.006Z,78.17
2019-03-19T21:39:19.370Z,84.25
2019-03-19T21:41:51.606Z,78.50
2019-03-19T21:44:23.901Z,81.85
2019-03-19T21:46:55.951Z,78.75
2019-03-19T21:49:28.151Z,96.30
2019-03-19T21:52:00.407Z,102.60
2019-03-19T21:54:32.754Z,77.97
2019-03-19T21:57:04.919Z,78.30
2019-03-19T21:59:37.266Z,181.18
2019-03-19T22:02:09.585Z,82.45
2019-03-19T22:04:41.925Z,78.30
2019-03-19T22:07:14.081Z,83.25
2019-03-19T22:09:46.160Z,72.97
2019-03-19T22:12:18.513Z,76.10
2019-03-19T22:14:51.165Z,75.20
2019-03-19T22:17:23.436Z,98.12
2019-03-19T22:19:55.800Z,76.17
2019-03-19T22:22:27.876Z,79.40
2019-03-19T22:25:00.053Z,105.58
2019-03-19T22:27:32.287Z,79.37
2019-03-19T22:30:04.841Z,77.92
2019-03-19T22:32:37.278Z,86.72
2019-03-19T22:35:09.568Z,85.35
2019-03-19T22:37:41.989Z,85.20
2019-03-19T22:40:17.163Z,81.67
2019-03-19T22:42:49.398Z,104.17
2019-03-19T22:45:21.712Z,93.85
2019-03-19T22:47:53.837Z,98.80
2019-03-19T22:50:26.020Z,108.37
2019-03-19T22:52:58.169Z,102.40
2019-03-19T22:55:30.369Z,103.78
2019-03-19T22:58:02.526Z,99.15
2019-03-19T23:00:36.124Z,103.03
2019-03-19T23:03:10.488Z,96.72
2019-03-19T23:05:42.552Z,103.97
2019-03-19T23:08:14.910Z,97.88
2019-03-19T23:10:47.174Z,101.00
2019-03-19T23:13:19.491Z,114.55
2019-03-19T23:15:52.121Z,105.20
2019-03-19T23:18:24.348Z,110.10
2019-03-19T23:20:56.541Z,109.87
2019-03-19T23:23:30.130Z,109.27
2019-03-19T23:26:02.409Z,112.93
2019-03-19T23:28:34.694Z,99.10
2019-03-19T23:31:07.001Z,94.17
2019-03-19T23:33:39.067Z,111.37
2019-03-19T23:36:11.263Z,91.00
2019-03-19T23:38:43.627Z,97.40
2019-03-19T23:41:15.928Z,104.60
2019-03-19T23:43:48.112Z,106.87
2019-03-19T23:46:20.283Z,106.75
2019-03-19T23:48:52.658Z,103.67
2019-03-19T23:51:24.835Z,128.30
2019-03-19T23:53:57.257Z,159.80
2019-03-19T23:56:29.597Z,90.75
2019-03-19T23:59:01.682Z,95.22
